createdAt,value
2022-12-18T00:01:28.736Z,-6.60
2022-12-18T00:03:56.795Z,-6.60
2022-12-18T00:06:26.346Z,-6.60
2022-12-18T00:08:53.927Z,-6.60
2022-12-18T00:11:26.498Z,-6.50
2022-12-18T00:13:55.637Z,-6.50
2022-12-18T00:16:24.917Z,-6.50
2022-12-18T00:18:54.987Z,-6.50
2022-12-18T00:21:21.997Z,-6.50
2022-12-18T00:23:50.418Z,-6.50
2022-12-18T00:26:20.867Z,-6.50
2022-12-18T00:28:47.916Z,-6.50
2022-12-18T00:31:22.919Z,-6.50
2022-12-18T00:33:54.177Z,-6.50
2022-12-18T00:36:25.560Z,-6.30
2022-12-18T00:38:53.805Z,-6.30
2022-12-18T00:41:40.097Z,-6.20
2022-12-18T00:44:08.729Z,-6.10
2022-12-18T00:46:35.550Z,-6.00
2022-12-18T00:49:02.858Z,-5.90
2022-12-18T00:51:30.150Z,-6.00
2022-12-18T00:53:56.971Z,-6.10
2022-12-18T00:56:24.258Z,-6.20
2022-12-18T00:58:51.082Z,-6.30
2022-12-18T01:01:18.315Z,-6.40
2022-12-18T01:03:46.287Z,-6.40
2022-12-18T01:06:14.967Z,-6.50
2022-12-18T01:08:59.181Z,-6.60
2022-12-18T01:11:26.071Z,-6.50
2022-12-18T01:13:56.294Z,-6.70
2022-12-18T01:16:23.853Z,-6.80
2022-12-18T01:18:54.079Z,-6.80
2022-12-18T01:21:21.801Z,-6.90
2022-12-18T01:23:53.339Z,-6.90
2022-12-18T01:26:20.551Z,-7.00
2022-12-18T01:28:47.406Z,-7.00
2022-12-18T01:31:34.824Z,-7.10
2022-12-18T01:34:02.621Z,-7.10
2022-12-18T01:36:32.826Z,-7.00
2022-12-18T01:39:05.913Z,-6.90
2022-12-18T01:41:52.563Z,-6.90
2022-12-18T01:44:47.465Z,-6.80
2022-12-18T01:47:28.365Z,-6.80
2022-12-18T01:49:56.707Z,-6.80
2022-12-18T01:52:27.121Z,-6.80
2022-12-18T01:54:55.241Z,-6.90
2022-12-18T01:57:23.069Z,-6.90
2022-12-18T01:59:53.666Z,-7.10
2022-12-18T02:02:22.184Z,-7.20
2022-12-18T02:04:49.827Z,-7.20
2022-12-18T02:07:37.215Z,-7.30
2022-12-18T02:10:25.336Z,-7.50
2022-12-18T02:13:05.817Z,-7.60
2022-12-18T02:16:05.239Z,-7.70
2022-12-18T02:18:37.772Z,-7.80
2022-12-18T02:21:17.294Z,-7.80
2022-12-18T02:23:55.859Z,-7.90
2022-12-18T02:26:39.040Z,-7.90
2022-12-18T02:29:21.405Z,-8.00
2022-12-18T02:32:00.602Z,-8.10
2022-12-18T02:34:32.419Z,-8.20
2022-12-18T02:37:01.492Z,-8.20
2022-12-18T02:39:30.376Z,-8.30
2022-12-18T02:41:58.750Z,-8.40
2022-12-18T02:44:25.589Z,-8.40
2022-12-18T02:46:54.406Z,-8.50
2022-12-18T02:49:41.090Z,-8.50
2022-12-18T02:52:26.304Z,-8.50
2022-12-18T02:55:01.458Z,-8.60
2022-12-18T02:57:41.898Z,-8.70
2022-12-18T03:00:13.721Z,-8.70
2022-12-18T03:02:51.404Z,-8.70
2022-12-18T03:05:23.646Z,-8.80
2022-12-18T03:08:20.110Z,-8.80
2022-12-18T03:11:13.511Z,-8.80
2022-12-18T03:13:51.951Z,-8.90
2022-12-18T03:16:29.426Z,-8.90
2022-12-18T03:19:18.053Z,-8.90
2022-12-18T03:21:48.129Z,-9.00
2022-12-18T03:24:16.195Z,-9.00
2022-12-18T03:26:47.954Z,-9.10
2022-12-18T03:29:30.975Z,-9.10
2022-12-18T03:32:09.800Z,-9.10
2022-12-18T03:34:39.845Z,-9.10
2022-12-18T03:37:07.931Z,-9.20
2022-12-18T03:39:35.580Z,-9.20
2022-12-18T03:42:28.712Z,-9.20
2022-12-18T03:45:23.288Z,-9.20
2022-12-18T03:48:08.261Z,-9.20
2022-12-18T03:50:57.823Z,-9.20
2022-12-18T03:53:59.471Z,-9.20
2022-12-18T03:56:30.826Z,-9.20
2022-12-18T03:59:00.150Z,-9.20
2022-12-18T04:01:40.121Z,-9.20
2022-12-18T04:04:09.375Z,-9.20
2022-12-18T04:06:37.192Z,-9.20
2022-12-18T04:09:05.795Z,-9.20
2022-12-18T04:11:32.563Z,-9.20
2022-12-18T04:13:59.831Z,-9.20
2022-12-18T04:16:27.834Z,-9.30
2022-12-18T04:18:54.998Z,-9.30
2022-12-18T04:21:21.882Z,-9.30
2022-12-18T04:23:48.613Z,-9.40
2022-12-18T04:26:15.371Z,-9.40
2022-12-18T04:28:42.153Z,-9.40
2022-12-18T04:31:09.226Z,-9.50
2022-12-18T04:33:36.091Z,-9.50
2022-12-18T04:36:03.032Z,-9.50
2022-12-18T04:38:29.793Z,-9.50
2022-12-18T04:40:56.582Z,-9.50
2022-12-18T04:43:23.548Z,-9.50
2022-12-18T04:45:50.325Z,-9.60
2022-12-18T04:48:17.187Z,-9.60
2022-12-18T04:50:44.007Z,-9.60
2022-12-18T04:53:10.830Z,-9.60
2022-12-18T04:55:37.588Z,-9.60
2022-12-18T04:58:04.499Z,-9.50
2022-12-18T05:00:31.336Z,-9.50
2022-12-18T05:02:58.230Z,-9.50
2022-12-18T05:05:25.104Z,-9.50
2022-12-18T05:07:51.859Z,-9.50
2022-12-18T05:10:18.633Z,-9.50
2022-12-18T05:13:01.468Z,-9.50
2022-12-18T05:15:30.145Z,-9.50
2022-12-18T05:17:58.118Z,-9.60
2022-12-18T05:20:25.928Z,-9.60
2022-12-18T05:22:53.187Z,-9.60
2022-12-18T05:25:20.910Z,-9.50
2022-12-18T05:27:47.968Z,-9.40
2022-12-18T05:30:15.631Z,-9.10
2022-12-18T05:32:42.454Z,-8.70
2022-12-18T05:35:10.645Z,-8.50
2022-12-18T05:37:42.694Z,-8.30
2022-12-18T05:40:10.874Z,-8.20
2022-12-18T05:42:37.837Z,-8.20
2022-12-18T05:45:05.433Z,-8.10
2022-12-18T05:47:32.377Z,-8.00
2022-12-18T05:49:59.150Z,-7.90
2022-12-18T05:52:25.882Z,-7.60
2022-12-18T05:54:52.676Z,-7.30
2022-12-18T05:57:19.447Z,-7.10
2022-12-18T05:59:46.263Z,-7.00
2022-12-18T06:02:13.104Z,-7.00
2022-12-18T06:04:39.909Z,-6.90
2022-12-18T06:07:06.868Z,-6.90
2022-12-18T06:09:33.601Z,-7.00
2022-12-18T06:12:00.339Z,-7.00
2022-12-18T06:14:27.218Z,-7.00
2022-12-18T06:16:54.187Z,-7.00
2022-12-18T06:19:21.063Z,-7.00
2022-12-18T06:21:48.391Z,-7.00
2022-12-18T06:24:15.659Z,-7.00
2022-12-18T06:26:42.542Z,-7.10
2022-12-18T06:29:13.338Z,-7.10
2022-12-18T06:31:40.246Z,-7.20
2022-12-18T06:34:07.058Z,-7.30
2022-12-18T06:36:33.888Z,-7.40
2022-12-18T06:39:00.691Z,-7.60
2022-12-18T06:41:27.807Z,-7.70
2022-12-18T06:43:59.337Z,-7.90
2022-12-18T06:46:26.593Z,-8.00
2022-12-18T06:48:53.763Z,-8.10
2022-12-18T06:51:22.086Z,-8.10
2022-12-18T06:53:48.962Z,-8.20
2022-12-18T06:56:15.777Z,-8.20
2022-12-18T06:58:42.716Z,-8.20
2022-12-18T07:01:12.544Z,-8.20
2022-12-18T07:03:41.487Z,-8.30
2022-12-18T07:06:19.202Z,-8.40
2022-12-18T07:08:46.841Z,-8.50
2022-12-18T07:11:14.413Z,-8.50
2022-12-18T07:13:41.487Z,-8.60
2022-12-18T07:16:21.064Z,-8.60
2022-12-18T07:18:51.141Z,-8.70
2022-12-18T07:21:20.176Z,-8.70
2022-12-18T07:23:49.101Z,-8.70
2022-12-18T07:26:19.548Z,-8.70
2022-12-18T07:28:46.661Z,-8.70
2022-12-18T07:31:16.683Z,-8.80
2022-12-18T07:33:44.394Z,-8.80
2022-12-18T07:36:11.863Z,-8.80
2022-12-18T07:38:39.402Z,-8.90
2022-12-18T07:41:12.141Z,-9.00
2022-12-18T07:43:40.560Z,-8.90
2022-12-18T07:46:10.210Z,-9.00
2022-12-18T07:48:37.337Z,-9.00
2022-12-18T07:51:06.658Z,-9.00
2022-12-18T07:53:34.966Z,-9.00
2022-12-18T07:58:55.156Z,-8.90
2022-12-18T08:01:22.179Z,-8.80
2022-12-18T08:03:52.186Z,-8.70
2022-12-18T08:06:21.842Z,-8.50
2022-12-18T08:08:54.972Z,-8.30
2022-12-18T08:11:23.535Z,-8.00
2022-12-18T08:13:50.784Z,-7.30
2022-12-18T08:16:18.388Z,-6.80
2022-12-18T08:18:45.288Z,-6.30
2022-12-18T08:21:17.269Z,-5.70
2022-12-18T08:23:44.635Z,-5.20
2022-12-18T08:26:12.590Z,-4.90
2022-12-18T08:28:39.950Z,-4.60
2022-12-18T08:31:07.752Z,-4.40
2022-12-18T08:33:35.437Z,-4.10
2022-12-18T08:36:03.263Z,-4.00
2022-12-18T08:38:30.123Z,-3.90
2022-12-18T08:41:05.452Z,-3.80
2022-12-18T08:43:51.215Z,-3.80
2022-12-18T08:46:19.330Z,-3.80
2022-12-18T08:48:46.317Z,-3.70
2022-12-18T08:51:14.259Z,-3.60
2022-12-18T08:53:42.352Z,-3.60
2022-12-18T08:56:09.323Z,-3.60
2022-12-18T08:58:36.202Z,-3.40
2022-12-18T09:01:04.839Z,-3.30
2022-12-18T09:03:32.568Z,-3.30
2022-12-18T09:06:00.503Z,-3.30
2022-12-18T09:08:27.749Z,-3.20
2022-12-18T09:10:54.581Z,-3.20
2022-12-18T09:13:21.798Z,-3.00
2022-12-18T09:15:50.960Z,-2.80
2022-12-18T09:18:19.810Z,-2.60
2022-12-18T09:20:46.926Z,-2.10
2022-12-18T09:23:14.117Z,-1.90
2022-12-18T09:25:41.753Z,-1.70
2022-12-18T09:28:17.670Z,-1.40
2022-12-18T09:30:50.151Z,-1.20
2022-12-18T09:33:18.262Z,-1.10
2022-12-18T09:35:46.252Z,-1.00
2022-12-18T09:38:16.577Z,-1.00
2022-12-18T09:40:49.564Z,-1.10
2022-12-18T09:43:23.303Z,-0.90
2022-12-18T09:45:54.817Z,-0.90
2022-12-18T09:48:32.672Z,-0.90
2022-12-18T09:51:04.912Z,-0.80
2022-12-18T09:53:37.402Z,-0.80
2022-12-18T09:56:06.418Z,-0.80
2022-12-18T09:58:43.217Z,-0.80
2022-12-18T10:01:19.341Z,-0.80
2022-12-18T10:03:46.944Z,-0.80
2022-12-18T10:06:49.829Z,-0.80
2022-12-18T10:09:28.467Z,-0.60
2022-12-18T10:12:02.661Z,-0.50
2022-12-18T10:14:51.323Z,-0.30
2022-12-18T10:17:46.932Z,-0.20
2022-12-18T10:20:14.285Z,-0.10
2022-12-18T10:23:11.669Z,0.00
2022-12-18T10:25:43.068Z,0.00
2022-12-18T10:28:17.728Z,0.10
2022-12-18T10:30:45.565Z,0.20
2022-12-18T10:33:29.620Z,0.40
2022-12-18T10:35:56.870Z,0.60
2022-12-18T10:38:30.172Z,0.50
2022-12-18T10:41:07.283Z,0.50
2022-12-18T10:43:39.355Z,0.70
2022-12-18T10:46:09.384Z,0.80
2022-12-18T10:48:48.188Z,0.90
2022-12-18T10:51:35.272Z,0.90
2022-12-18T10:54:13.569Z,0.80
2022-12-18T10:56:40.594Z,0.80
2022-12-18T10:59:10.742Z,0.70
2022-12-18T11:01:50.049Z,0.80
2022-12-18T11:04:29.348Z,0.70
2022-12-18T11:06:56.739Z,0.70
2022-12-18T11:09:26.325Z,0.70
2022-12-18T11:11:55.663Z,0.70
2022-12-18T11:14:26.146Z,0.70
2022-12-18T11:17:24.503Z,0.70
2022-12-18T11:19:42.684Z,0.70
2022-12-18T11:22:29.148Z,0.60
2022-12-18T11:25:33.021Z,0.70
2022-12-18T11:28:03.711Z,0.70
2022-12-18T11:30:37.954Z,0.70
2022-12-18T11:33:15.292Z,0.70
2022-12-18T11:36:06.010Z,0.60
2022-12-18T11:38:37.779Z,0.60
2022-12-18T11:41:46.853Z,0.50
2022-12-18T11:44:19.600Z,0.40
2022-12-18T11:46:54.209Z,0.30
2022-12-18T11:49:29.983Z,0.20
2022-12-18T11:52:20.684Z,0.10
2022-12-18T11:54:57.513Z,0.10
2022-12-18T11:57:27.496Z,0.00
2022-12-18T12:00:11.690Z,-0.10
2022-12-18T12:03:13.803Z,-0.20
2022-12-18T12:06:15.554Z,-0.20
2022-12-18T12:08:51.713Z,-0.30
2022-12-18T12:11:50.077Z,-0.30
2022-12-18T12:14:28.973Z,-0.30
2022-12-18T12:17:07.323Z,-0.40
2022-12-18T12:19:40.006Z,-0.40
2022-12-18T12:22:43.793Z,-0.40
2022-12-18T12:25:29.515Z,-0.50
2022-12-18T12:28:05.528Z,-0.50
2022-12-18T12:30:57.791Z,-0.50
2022-12-18T12:33:50.783Z,-0.50
2022-12-18T12:36:42.144Z,-0.50
2022-12-18T12:39:14.787Z,-0.40
2022-12-18T12:42:04.560Z,-0.40
2022-12-18T12:44:37.234Z,-0.40
2022-12-18T12:47:15.788Z,-0.30
2022-12-18T12:49:50.892Z,-0.40
2022-12-18T12:52:30.511Z,-0.40
2022-12-18T12:54:58.362Z,-0.40
2022-12-18T12:57:53.046Z,-0.30
2022-12-18T13:00:21.113Z,-0.30
2022-12-18T13:03:04.719Z,-0.30
2022-12-18T13:05:55.274Z,-0.40
2022-12-18T13:08:35.874Z,-0.30
2022-12-18T13:11:22.783Z,-0.40
2022-12-18T13:13:55.385Z,-0.40
2022-12-18T13:16:28.560Z,-0.40
2022-12-18T13:18:58.855Z,-0.40
2022-12-18T13:21:31.562Z,-0.40
2022-12-18T13:24:41.855Z,-0.40
2022-12-18T13:28:02.810Z,-0.30
2022-12-18T13:30:33.119Z,-0.30
2022-12-18T13:33:15.334Z,-0.40
2022-12-18T13:35:48.122Z,-0.40
2022-12-18T13:38:35.326Z,-0.40
2022-12-18T13:41:29.026Z,-0.50
2022-12-18T13:44:00.886Z,-0.50
2022-12-18T13:46:46.102Z,-0.50
2022-12-18T13:49:13.371Z,-0.50
2022-12-18T13:51:47.611Z,-0.40
2022-12-18T13:54:26.521Z,-0.40
2022-12-18T13:56:56.565Z,-0.30
2022-12-18T13:59:37.642Z,-0.40
2022-12-18T14:02:21.717Z,-0.40
2022-12-18T14:04:50.686Z,-0.40
2022-12-18T14:07:20.600Z,-0.40
2022-12-18T14:09:52.328Z,-0.40
2022-12-18T14:12:46.939Z,-0.50
2022-12-18T14:15:30.070Z,-0.50
2022-12-18T14:18:10.993Z,-0.50
2022-12-18T14:20:41.260Z,-0.50
2022-12-18T14:23:30.574Z,-0.40
2022-12-18T14:26:02.083Z,-0.40
2022-12-18T14:28:32.556Z,-0.50
2022-12-18T14:30:59.492Z,-0.50
2022-12-18T14:33:29.268Z,-0.50
2022-12-18T14:35:59.601Z,-0.40
2022-12-18T14:38:37.574Z,-0.50
2022-12-18T14:41:13.025Z,-0.40
2022-12-18T14:43:42.728Z,-0.50
2022-12-18T14:46:30.139Z,-0.50
2022-12-18T14:48:58.189Z,-0.50
2022-12-18T14:51:28.128Z,-0.50
2022-12-18T14:53:55.687Z,-0.50
2022-12-18T14:56:27.351Z,-0.60
2022-12-18T14:59:14.605Z,-0.60
2022-12-18T15:01:48.592Z,-0.60
2022-12-18T15:04:44.220Z,-0.60
2022-12-18T15:07:23.303Z,-0.70
2022-12-18T15:10:21.885Z,-0.70
2022-12-18T15:13:09.714Z,-0.70
2022-12-18T15:15:40.457Z,-0.70
2022-12-18T15:18:13.241Z,-0.80
2022-12-18T15:20:49.325Z,-0.70
2022-12-18T15:23:21.501Z,-0.80
2022-12-18T15:25:50.301Z,-0.80
2022-12-18T15:28:22.633Z,-0.80
2022-12-18T15:31:07.226Z,-0.80
2022-12-18T15:33:40.716Z,-0.70
2022-12-18T15:36:16.658Z,-0.70
2022-12-18T15:38:53.807Z,-0.80
2022-12-18T15:41:24.762Z,-0.80
2022-12-18T15:43:53.729Z,-0.80
2022-12-18T15:46:22.841Z,-0.80
2022-12-18T15:48:59.760Z,-0.90
2022-12-18T15:51:37.223Z,-0.90
2022-12-18T15:54:07.336Z,-0.90
2022-12-18T15:56:52.907Z,-0.80
2022-12-18T15:59:21.422Z,-0.80
2022-12-18T16:01:50.509Z,-0.80
2022-12-18T16:04:21.572Z,-0.80
2022-12-18T16:09:37.845Z,-0.80
2022-12-18T16:12:04.972Z,-0.80
2022-12-18T16:14:33.142Z,-0.80
2022-12-18T16:17:01.234Z,-0.80
2022-12-18T16:19:29.238Z,-0.80
2022-12-18T16:21:58.171Z,-0.90
2022-12-18T16:24:30.611Z,-0.80
2022-12-18T16:27:00.339Z,-0.80
2022-12-18T16:29:28.847Z,-0.70
2022-12-18T16:32:00.320Z,-0.80
2022-12-18T16:34:40.320Z,-0.80
2022-12-18T16:37:09.065Z,-0.80
2022-12-18T16:39:37.241Z,-0.80
2022-12-18T16:42:06.919Z,-0.80
2022-12-18T16:44:36.997Z,-0.80
2022-12-18T16:47:04.764Z,-0.70
2022-12-18T16:49:32.095Z,-0.70
2022-12-18T16:52:03.332Z,-0.70
2022-12-18T16:54:30.571Z,-0.60
2022-12-18T16:56:57.662Z,-0.60
2022-12-18T16:59:26.509Z,-0.60
2022-12-18T17:01:53.855Z,-0.60
2022-12-18T17:04:20.775Z,-0.50
2022-12-18T17:06:52.091Z,-0.50
2022-12-18T17:09:29.182Z,-0.40
2022-12-18T17:11:56.376Z,-0.20
2022-12-18T17:14:24.863Z,-0.30
2022-12-18T17:17:20.817Z,-0.30
2022-12-18T17:19:47.598Z,-0.20
2022-12-18T17:22:14.519Z,-0.10
2022-12-18T17:24:41.369Z,-0.10
2022-12-18T17:27:08.963Z,0.00
2022-12-18T17:29:36.158Z,0.10
2022-12-18T17:32:03.080Z,0.00
2022-12-18T17:34:30.148Z,0.00
2022-12-18T17:36:58.008Z,0.10
2022-12-18T17:39:24.868Z,0.10
2022-12-18T17:41:51.740Z,0.10
2022-12-18T17:44:19.435Z,0.10
2022-12-18T17:46:49.323Z,0.10
2022-12-18T17:49:16.417Z,0.20
2022-12-18T17:51:43.370Z,0.20
2022-12-18T17:54:10.842Z,0.30
2022-12-18T17:56:38.584Z,0.30
2022-12-18T17:59:06.908Z,0.30
2022-12-18T18:01:35.070Z,0.30
2022-12-18T18:04:04.908Z,0.30
2022-12-18T18:06:31.813Z,0.30
2022-12-18T18:09:01.305Z,0.30
2022-12-18T18:11:46.830Z,0.40
2022-12-18T18:14:17.273Z,0.30
2022-12-18T18:16:47.305Z,0.30
2022-12-18T18:19:22.969Z,0.40
2022-12-18T18:21:52.691Z,0.40
2022-12-18T18:24:23.589Z,0.30
2022-12-18T18:26:50.796Z,0.40
2022-12-18T18:29:23.661Z,0.40
2022-12-18T18:31:52.651Z,0.40
2022-12-18T18:34:22.862Z,0.40
2022-12-18T18:36:49.935Z,0.40
2022-12-18T18:39:17.342Z,0.40
2022-12-18T18:41:46.842Z,0.40
2022-12-18T18:44:16.689Z,0.40
2022-12-18T18:46:43.869Z,0.40
2022-12-18T18:49:11.281Z,0.50
2022-12-18T18:51:38.119Z,0.40
2022-12-18T18:54:05.150Z,0.50
2022-12-18T18:59:19.364Z,0.50
2022-12-18T19:01:51.062Z,0.50
2022-12-18T19:04:18.942Z,0.50
2022-12-18T19:06:47.921Z,0.50
2022-12-18T19:09:15.929Z,0.40
2022-12-18T19:12:01.326Z,0.40
2022-12-18T19:14:28.689Z,0.40
2022-12-18T19:16:55.682Z,0.40
2022-12-18T19:19:23.565Z,0.40
2022-12-18T19:21:50.908Z,0.40
2022-12-18T19:24:17.951Z,0.40
2022-12-18T19:26:47.154Z,0.40
2022-12-18T19:29:16.135Z,0.40
2022-12-18T19:31:43.701Z,0.40
2022-12-18T19:34:12.225Z,0.30
2022-12-18T19:36:40.850Z,0.30
2022-12-18T19:39:14.722Z,0.30
2022-12-18T19:41:43.639Z,0.30
2022-12-18T19:44:19.719Z,0.30
2022-12-18T19:46:50.555Z,0.30
2022-12-18T19:49:18.403Z,0.30
2022-12-18T19:51:46.326Z,0.20
2022-12-18T19:54:17.029Z,0.20
2022-12-18T19:56:46.012Z,0.20
2022-12-18T19:59:13.498Z,0.10
2022-12-18T20:01:41.035Z,0.10
2022-12-18T20:04:09.048Z,0.10
2022-12-18T20:06:47.189Z,0.10
2022-12-18T20:09:14.613Z,0.10
2022-12-18T20:11:42.605Z,0.00
2022-12-18T20:14:11.351Z,0.00
2022-12-18T20:16:39.536Z,0.00
2022-12-18T20:19:09.752Z,0.10
2022-12-18T20:21:37.461Z,0.10
2022-12-18T20:24:04.913Z,0.10
2022-12-18T20:26:31.877Z,0.10
2022-12-18T20:28:59.035Z,0.20
2022-12-18T20:31:29.096Z,0.10
2022-12-18T20:34:02.630Z,0.10
2022-12-18T20:36:32.845Z,0.20
2022-12-18T20:39:01.673Z,0.20
2022-12-18T20:41:35.024Z,0.20
2022-12-18T20:44:23.395Z,0.20
2022-12-18T20:46:56.795Z,0.20
2022-12-18T20:49:25.709Z,0.20
2022-12-18T20:51:57.123Z,0.20
2022-12-18T20:54:26.838Z,0.30
2022-12-18T20:56:54.594Z,0.20
2022-12-18T20:59:23.402Z,0.20
2022-12-18T21:01:54.100Z,0.30
2022-12-18T21:04:21.697Z,0.40
2022-12-18T21:06:54.118Z,0.40
2022-12-18T21:09:27.770Z,0.40
2022-12-18T21:12:17.466Z,0.40
2022-12-18T21:14:44.960Z,0.40
2022-12-18T21:17:12.607Z,0.40
2022-12-18T21:19:39.589Z,0.40
2022-12-18T21:22:06.713Z,0.40
2022-12-18T21:24:33.930Z,0.40
2022-12-18T21:27:01.934Z,0.40
2022-12-18T21:29:28.876Z,0.40
2022-12-18T21:31:56.018Z,0.40
2022-12-18T21:34:26.591Z,0.30
2022-12-18T21:36:54.664Z,0.50
2022-12-18T21:39:22.585Z,0.40
2022-12-18T21:42:09.099Z,0.40
2022-12-18T21:44:41.570Z,0.40
2022-12-18T21:47:22.134Z,0.40
2022-12-18T21:49:55.120Z,0.40
2022-12-18T21:52:31.312Z,0.30
2022-12-18T21:55:03.099Z,0.30
2022-12-18T21:57:35.077Z,0.30
2022-12-18T22:00:02.980Z,0.30
2022-12-18T22:02:30.343Z,0.20
2022-12-18T22:04:57.361Z,0.20
2022-12-18T22:07:24.425Z,0.10
2022-12-18T22:09:51.455Z,0.40
2022-12-18T22:12:35.296Z,0.20
2022-12-18T22:15:04.995Z,0.20
2022-12-18T22:17:32.187Z,0.20
2022-12-18T22:19:59.049Z,0.10
2022-12-18T22:22:26.306Z,0.20
2022-12-18T22:24:53.258Z,0.10
2022-12-18T22:27:20.058Z,0.10
2022-12-18T22:30:04.826Z,0.10
2022-12-18T22:32:36.100Z,0.10
2022-12-18T22:35:09.416Z,0.10
2022-12-18T22:37:37.641Z,0.10
2022-12-18T22:40:06.203Z,0.10
2022-12-18T22:42:34.333Z,0.10
2022-12-18T22:45:01.214Z,0.10
2022-12-18T22:47:30.436Z,0.10
2022-12-18T22:49:58.326Z,0.10
2022-12-18T22:52:25.707Z,0.10
2022-12-18T22:54:54.119Z,0.10
2022-12-18T22:57:22.425Z,0.20
2022-12-18T22:59:50.872Z,0.10
2022-12-18T23:02:19.308Z,0.20
2022-12-18T23:04:48.000Z,0.30
2022-12-18T23:07:16.245Z,0.10
2022-12-18T23:09:43.394Z,0.30
2022-12-18T23:12:15.552Z,0.30
2022-12-18T23:14:42.940Z,0.30
2022-12-18T23:17:09.894Z,0.30
2022-12-18T23:19:38.025Z,0.30
2022-12-18T23:22:10.047Z,0.30
2022-12-18T23:24:39.145Z,0.30
2022-12-18T23:27:10.258Z,0.40
2022-12-18T23:29:40.053Z,0.40
2022-12-18T23:32:07.518Z,0.40
2022-12-18T23:34:34.333Z,0.40
2022-12-18T23:37:01.203Z,0.60
2022-12-18T23:39:30.279Z,0.50
2022-12-18T23:42:00.928Z,0.50
2022-12-18T23:44:28.499Z,0.50
2022-12-18T23:46:57.900Z,0.40
2022-12-18T23:49:24.700Z,0.40
2022-12-18T23:51:54.302Z,0.40
2022-12-18T23:54:22.408Z,0.40
2022-12-18T23:56:59.521Z,0.50
2022-12-18T23:59:26.284Z,0.40
